Baton Rouge Metropolitan, Ryan Field
KBTR : now visible

Airfield :











YOU CAN JOIN US ON...

 
LOGIN :

Register | Disclaimer

   EN    FR    IT 

 









Legend :    VFR   Marginal VFR   IFR   Intensive IFR   Very Intensive IFR
Visi :
Ceiling :
>= 8 km
>= 3000ft
5 to 8 km
1000 to 3000 ft
1500m to 5 km
500 to 1000 ft
800 to 1500m
200 to 500 ft
< 800m
< 200 ft
Symbols :   Thunderstorms  Fog  Heavy snow  Heavy precipitations  Wind > 20 kt







- Airport Elevation : 70 ft
- IATA code : BTR


KBTR - Baton Rouge Metropolitan, Ryan Field

CURRENT METAR :
  • 261553Z VRB03KT 10SM SCT030 29/22 A3015 RMK AO2 SLP207 T02940217

EXPIRED METARs :
  • 261453Z 10004KT 10SM FEW016 28/22 A3015 RMK AO2 SLP209 T02830222 51012
  • 261353Z 06004KT 10SM CLR 27/23 A3015 RMK AO2 SLP207 T02670233

TAF KBTR
Valid from the 26 at 12:00 until the 27 at 12:00 UTC


261134Z 2612/2712 VRB04KT P6SM BKN015
FM261400 15005KT P6SM BKN025
FM261700 15006KT P6SM FEW250
FM270100 VRB03KT P6SM SKC
FM271100 00000KT P6SM BKN020
KZHU FIR / North America



MET'MAP, your aeronautical weather chart ! - Copyright ORBIFLY December 2007 - Disclaimer

ORBIFLY MET'MAP TEAM :

Programming & Development : Alexandra Zaïnal
Concept & Development : Baudouin d'Aumeries
Co-Development & Prog : Marc-Olivier Méhu
Technical & hardware support : Manuel Goepfert

Contact : metmap@orbifly.com




SOURCES & CREDITS :

   NOAA       Earth
Advisory